createdAt,value
2018-11-07T00:00:52.126Z,40.53
2018-11-07T00:03:20.591Z,42.03
2018-11-07T00:05:48.669Z,42.87
2018-11-07T00:08:17.163Z,40.67
2018-11-07T00:10:45.268Z,40.10
2018-11-07T00:13:13.340Z,38.80
2018-11-07T00:15:41.510Z,38.00
2018-11-07T00:18:09.568Z,38.80
2018-11-07T00:20:37.611Z,39.77
2018-11-07T00:23:05.612Z,40.10
2018-11-07T00:25:33.667Z,40.20
2018-11-07T00:28:01.673Z,38.93
2018-11-07T00:30:29.710Z,39.37
2018-11-07T00:32:57.786Z,39.00
2018-11-07T00:35:25.827Z,38.60
2018-11-07T00:37:53.905Z,39.03
2018-11-07T00:40:21.981Z,39.43
2018-11-07T00:42:50.045Z,40.80
2018-11-07T00:45:18.117Z,39.07
2018-11-07T00:47:46.136Z,37.80
2018-11-07T00:50:15.712Z,38.90
2018-11-07T00:52:44.364Z,37.27
2018-11-07T00:55:13.187Z,37.80
2018-11-07T00:57:41.442Z,37.77
2018-11-07T01:00:11.228Z,36.97
2018-11-07T01:02:39.444Z,36.90
2018-11-07T01:05:08.710Z,35.33
2018-11-07T01:07:36.825Z,35.40
2018-11-07T01:10:05.306Z,36.20
2018-11-07T01:12:33.414Z,34.40
2018-11-07T01:15:01.540Z,34.57
2018-11-07T01:17:29.629Z,34.23
2018-11-07T01:19:57.673Z,32.90
2018-11-07T01:22:25.850Z,35.60
2018-11-07T01:24:53.898Z,35.40
2018-11-07T01:27:28.628Z,34.43
2018-11-07T01:29:56.802Z,32.77
2018-11-07T01:32:24.864Z,34.77
2018-11-07T01:34:52.945Z,34.63
2018-11-07T01:37:21.018Z,34.53
2018-11-07T01:39:49.059Z,33.37
2018-11-07T01:42:17.134Z,33.77
2018-11-07T01:44:45.313Z,32.10
2018-11-07T01:47:13.385Z,32.37
2018-11-07T01:49:41.466Z,32.53
2018-11-07T01:52:09.486Z,31.37
2018-11-07T01:54:37.504Z,33.50
2018-11-07T01:57:05.722Z,31.50
2018-11-07T01:59:33.717Z,30.00
2018-11-07T02:02:01.891Z,30.30
2018-11-07T02:04:29.936Z,29.90
2018-11-07T02:06:58.069Z,27.50
2018-11-07T02:09:26.060Z,27.60
2018-11-07T02:11:54.119Z,28.90
2018-11-07T02:14:22.175Z,29.20
2018-11-07T02:16:50.212Z,26.80
2018-11-07T02:19:18.235Z,27.23
2018-11-07T02:21:46.234Z,26.57
2018-11-07T02:24:14.260Z,28.43
2018-11-07T02:26:42.331Z,27.30
2018-11-07T02:29:14.197Z,27.70
2018-11-07T02:31:43.972Z,26.40
2018-11-07T02:34:12.350Z,25.10
2018-11-07T02:36:40.942Z,26.70
2018-11-07T02:39:11.052Z,25.93
2018-11-07T02:41:39.485Z,25.30
2018-11-07T02:44:07.712Z,25.67
2018-11-07T02:46:35.861Z,24.63
2018-11-07T02:49:04.070Z,26.03
2018-11-07T02:51:32.209Z,24.77
2018-11-07T02:54:01.000Z,24.63
2018-11-07T02:56:29.327Z,25.07
2018-11-07T02:58:57.757Z,24.13
2018-11-07T03:01:26.160Z,24.30
2018-11-07T03:03:54.158Z,23.73
2018-11-07T03:06:22.197Z,24.43
2018-11-07T03:08:50.253Z,25.00
2018-11-07T03:11:18.240Z,24.40
2018-11-07T03:13:46.390Z,23.87
2018-11-07T03:16:14.411Z,23.67
2018-11-07T03:18:42.790Z,23.97
2018-11-07T03:21:10.865Z,23.17
2018-11-07T03:23:38.970Z,23.00
2018-11-07T03:26:07.068Z,24.00
2018-11-07T03:28:35.181Z,22.80
2018-11-07T03:31:03.227Z,22.87
2018-11-07T03:33:31.297Z,22.63
2018-11-07T03:35:59.392Z,23.87
2018-11-07T03:38:27.506Z,22.90
2018-11-07T03:40:55.734Z,24.43
2018-11-07T03:43:23.928Z,23.60
2018-11-07T03:45:57.515Z,24.80
2018-11-07T03:48:26.649Z,24.80
2018-11-07T03:50:54.746Z,24.70
2018-11-07T03:53:22.921Z,26.93
2018-11-07T03:55:50.937Z,25.23
2018-11-07T03:58:18.949Z,24.50
2018-11-07T04:00:47.021Z,24.53
2018-11-07T04:03:15.407Z,24.57
2018-11-07T04:05:43.486Z,23.80
2018-11-07T04:08:11.639Z,23.60
2018-11-07T04:10:39.723Z,22.93
2018-11-07T04:13:07.763Z,23.33
2018-11-07T04:15:35.823Z,22.97
2018-11-07T04:18:03.884Z,23.93
2018-11-07T04:20:32.146Z,23.50
2018-11-07T04:23:00.241Z,22.67
2018-11-07T04:25:28.293Z,22.77
2018-11-07T04:27:56.390Z,23.60
2018-11-07T04:30:24.446Z,23.10
2018-11-07T04:32:52.540Z,22.43
2018-11-07T04:35:20.696Z,23.03
2018-11-07T04:37:48.770Z,22.07
2018-11-07T04:40:16.820Z,22.40
2018-11-07T04:42:44.875Z,23.93
2018-11-07T04:45:12.947Z,22.07
2018-11-07T04:47:41.033Z,22.90
2018-11-07T04:50:10.481Z,22.10
2018-11-07T04:52:38.844Z,22.43
2018-11-07T04:55:07.041Z,22.40
2018-11-07T04:57:35.135Z,22.90
2018-11-07T05:00:03.266Z,22.60
2018-11-07T05:02:31.331Z,21.17
2018-11-07T05:04:59.429Z,21.17
2018-11-07T05:07:27.490Z,21.03
2018-11-07T05:09:55.636Z,22.30
2018-11-07T05:12:23.674Z,22.93
2018-11-07T05:14:51.718Z,21.50
2018-11-07T05:17:19.814Z,21.77
2018-11-07T05:19:47.941Z,20.83
2018-11-07T05:22:16.005Z,20.00
2018-11-07T05:24:44.081Z,20.87
2018-11-07T05:29:57.610Z,22.30
2018-11-07T05:32:25.818Z,21.13
2018-11-07T05:34:54.078Z,21.43
2018-11-07T05:37:22.225Z,22.20
2018-11-07T05:39:50.257Z,20.10
2018-11-07T05:42:18.278Z,19.27
2018-11-07T05:44:52.867Z,19.30
2018-11-07T05:47:21.005Z,18.80
2018-11-07T05:49:49.758Z,19.10
2018-11-07T05:52:17.894Z,18.97
2018-11-07T05:54:45.909Z,18.57
2018-11-07T05:57:14.124Z,19.33
2018-11-07T05:59:42.206Z,18.40
2018-11-07T06:02:10.475Z,19.10
2018-11-07T06:04:38.554Z,19.10
2018-11-07T06:07:06.672Z,18.93
2018-11-07T06:09:35.076Z,18.80
2018-11-07T06:12:03.326Z,18.63
2018-11-07T06:14:31.421Z,18.50
2018-11-07T06:16:59.529Z,19.23
2018-11-07T06:19:27.777Z,19.00
2018-11-07T06:21:55.921Z,19.10
2018-11-07T06:24:24.291Z,19.23
2018-11-07T06:26:52.610Z,18.23
2018-11-07T06:29:20.784Z,19.20
2018-11-07T06:31:48.825Z,19.40
2018-11-07T06:34:16.999Z,20.60
2018-11-07T06:36:45.118Z,20.20
2018-11-07T06:39:13.245Z,19.43
2018-11-07T06:41:41.270Z,19.73
2018-11-07T06:44:09.503Z,19.50
2018-11-07T06:46:37.899Z,19.80
2018-11-07T06:49:05.943Z,20.17
2018-11-07T06:51:34.022Z,19.60
2018-11-07T06:54:02.195Z,21.07
2018-11-07T06:56:30.245Z,21.13
2018-11-07T06:58:58.465Z,21.33
2018-11-07T07:01:26.686Z,22.77
2018-11-07T07:03:54.779Z,23.30
2018-11-07T07:06:23.074Z,29.33
2018-11-07T07:08:51.580Z,28.97
2018-11-07T07:11:19.637Z,33.00
2018-11-07T07:13:47.693Z,40.60
2018-11-07T07:16:15.789Z,32.37
2018-11-07T07:18:44.008Z,23.30
2018-11-07T07:21:12.080Z,20.90
2018-11-07T07:23:40.094Z,20.03
2018-11-07T07:26:08.177Z,20.63
2018-11-07T07:28:36.376Z,20.90
2018-11-07T07:31:04.632Z,20.97
2018-11-07T07:33:32.706Z,21.00
2018-11-07T07:36:00.764Z,19.80
2018-11-07T07:38:29.141Z,20.13
2018-11-07T07:40:57.522Z,19.27
2018-11-07T07:43:25.592Z,19.13
2018-11-07T07:45:53.682Z,19.53
2018-11-07T07:48:21.704Z,19.10
2018-11-07T07:50:49.797Z,18.10
2018-11-07T07:53:17.918Z,19.47
2018-11-07T07:58:14.427Z,17.63
2018-11-07T08:00:42.477Z,18.63
2018-11-07T08:03:10.461Z,18.60
2018-11-07T08:05:38.572Z,17.33
2018-11-07T08:08:06.657Z,18.50
2018-11-07T08:10:34.712Z,18.47
2018-11-07T08:13:02.719Z,16.83
2018-11-07T08:15:30.829Z,17.47
2018-11-07T08:17:58.858Z,19.53
2018-11-07T08:20:26.894Z,18.23
2018-11-07T08:22:54.998Z,18.93
2018-11-07T08:25:23.083Z,17.97
2018-11-07T08:27:51.141Z,17.77
2018-11-07T08:30:20.659Z,18.60
2018-11-07T08:32:48.722Z,18.37
2018-11-07T08:35:16.878Z,18.07
2018-11-07T08:37:45.719Z,17.77
2018-11-07T08:40:22.363Z,17.90
2018-11-07T08:42:50.630Z,17.27
2018-11-07T08:45:18.649Z,17.57
2018-11-07T08:47:47.291Z,18.77
2018-11-07T08:50:16.634Z,18.93
2018-11-07T08:52:51.265Z,18.10
2018-11-07T08:55:20.622Z,18.60
2018-11-07T08:57:48.701Z,18.17
2018-11-07T09:00:18.074Z,18.43
2018-11-07T09:02:48.245Z,19.30
2018-11-07T09:05:16.904Z,16.93
2018-11-07T09:07:45.571Z,17.60
2018-11-07T09:10:14.894Z,17.40
2018-11-07T09:12:44.283Z,18.00
2018-11-07T09:15:13.626Z,17.23
2018-11-07T09:17:41.887Z,16.43
2018-11-07T09:20:11.588Z,17.57
2018-11-07T09:22:40.419Z,16.40
2018-11-07T09:25:08.466Z,16.57
2018-11-07T09:27:36.578Z,15.07
2018-11-07T09:30:04.931Z,15.80
2018-11-07T09:32:33.105Z,15.43
2018-11-07T09:35:01.412Z,16.50
2018-11-07T09:37:29.634Z,16.30
2018-11-07T09:39:57.761Z,14.70
2018-11-07T09:42:25.869Z,15.63
2018-11-07T09:44:53.941Z,14.83
2018-11-07T09:47:22.271Z,14.67
2018-11-07T09:49:50.399Z,14.60
2018-11-07T09:52:18.423Z,13.63
2018-11-07T09:54:46.531Z,14.60
2018-11-07T09:57:14.578Z,13.57
2018-11-07T09:59:43.010Z,14.03
2018-11-07T10:02:11.054Z,14.43
2018-11-07T10:04:39.173Z,14.10
2018-11-07T10:07:07.247Z,13.47
2018-11-07T10:09:35.594Z,13.27
2018-11-07T10:12:03.934Z,14.10
2018-11-07T10:14:31.991Z,13.03
2018-11-07T10:17:00.023Z,13.20
2018-11-07T10:19:28.234Z,12.67
2018-11-07T10:21:56.278Z,12.93
2018-11-07T10:24:24.427Z,12.47
2018-11-07T10:26:52.704Z,11.37
2018-11-07T10:29:20.917Z,10.80
2018-11-07T10:31:48.699Z,10.80
2018-11-07T10:34:16.944Z,10.90
2018-11-07T10:36:45.061Z,9.87
2018-11-07T10:39:13.130Z,9.23
2018-11-07T10:41:41.233Z,9.80
2018-11-07T10:44:09.386Z,10.53
2018-11-07T10:46:37.409Z,10.07
2018-11-07T10:49:05.754Z,12.10
2018-11-07T10:51:33.920Z,10.30
2018-11-07T10:54:02.010Z,10.03
2018-11-07T10:56:30.151Z,10.13
2018-11-07T10:58:58.166Z,9.70
2018-11-07T11:01:31.767Z,9.23
2018-11-07T11:03:59.892Z,8.80
2018-11-07T11:06:28.269Z,9.00
2018-11-07T11:08:56.394Z,8.07
2018-11-07T11:11:24.594Z,8.63
2018-11-07T11:13:52.624Z,9.07
2018-11-07T11:16:20.654Z,8.90
2018-11-07T11:18:48.729Z,8.67
2018-11-07T11:21:16.782Z,8.60
2018-11-07T11:23:44.950Z,9.33
2018-11-07T11:26:13.051Z,8.30
2018-11-07T11:28:41.125Z,8.53
2018-11-07T11:31:09.168Z,7.70
2018-11-07T11:33:37.293Z,7.93
2018-11-07T11:36:05.571Z,8.27
2018-11-07T11:38:33.642Z,6.80
2018-11-07T11:41:01.668Z,7.60
2018-11-07T11:43:29.700Z,6.80
2018-11-07T11:45:57.805Z,7.60
2018-11-07T11:48:25.893Z,7.73
2018-11-07T11:50:53.941Z,7.67
2018-11-07T11:53:22.026Z,8.00
2018-11-07T11:55:50.100Z,7.90
2018-11-07T11:58:18.174Z,6.93
2018-11-07T12:00:46.241Z,7.50
2018-11-07T12:03:14.364Z,7.40
2018-11-07T12:05:42.479Z,7.50
2018-11-07T12:08:10.517Z,7.70
2018-11-07T12:10:38.610Z,7.27
2018-11-07T12:13:06.741Z,8.10
2018-11-07T12:15:34.689Z,6.97
2018-11-07T12:18:02.734Z,7.00
2018-11-07T12:20:30.758Z,6.83
2018-11-07T12:22:58.827Z,6.87
2018-11-07T12:25:26.860Z,6.40
2018-11-07T12:27:54.870Z,7.93
2018-11-07T12:30:23.797Z,6.80
2018-11-07T12:32:53.071Z,7.10
2018-11-07T12:35:21.683Z,6.57
2018-11-07T12:37:49.728Z,6.40
2018-11-07T12:40:23.142Z,6.33
2018-11-07T12:42:51.204Z,6.27
2018-11-07T12:45:19.157Z,6.50
2018-11-07T12:47:47.195Z,5.90
2018-11-07T12:50:19.620Z,5.93
2018-11-07T12:52:47.855Z,7.20
2018-11-07T12:55:16.310Z,5.53
2018-11-07T12:57:44.457Z,6.10
2018-11-07T13:00:14.961Z,5.50
2018-11-07T13:02:43.042Z,6.00
2018-11-07T13:05:12.609Z,6.47
2018-11-07T13:07:41.101Z,5.87
2018-11-07T13:10:11.711Z,5.90
2018-11-07T13:12:40.209Z,6.00
2018-11-07T13:15:09.358Z,6.00
2018-11-07T13:17:37.475Z,6.00
2018-11-07T13:20:07.756Z,5.90
2018-11-07T13:22:35.765Z,6.00
2018-11-07T13:25:03.924Z,5.27
2018-11-07T13:27:31.990Z,5.07
2018-11-07T13:30:00.051Z,5.60
2018-11-07T13:32:28.033Z,6.40
2018-11-07T13:34:56.108Z,5.63
2018-11-07T13:37:24.307Z,6.37
2018-11-07T13:39:52.258Z,5.83
2018-11-07T13:42:20.291Z,6.67
2018-11-07T13:44:49.227Z,5.80
2018-11-07T13:47:17.253Z,5.63
2018-11-07T13:49:45.253Z,6.13
2018-11-07T13:52:19.851Z,5.70
2018-11-07T13:54:48.053Z,5.50
2018-11-07T13:57:16.093Z,4.93
2018-11-07T13:59:44.097Z,5.90
2018-11-07T14:02:12.116Z,5.37
2018-11-07T14:04:40.185Z,6.03
2018-11-07T14:07:08.269Z,5.50
2018-11-07T14:09:36.352Z,5.60
2018-11-07T14:12:04.618Z,5.07
2018-11-07T14:14:32.638Z,6.03
2018-11-07T14:17:00.753Z,5.63
2018-11-07T14:19:28.921Z,5.70
2018-11-07T14:21:57.015Z,6.17
2018-11-07T14:24:25.028Z,4.80
2018-11-07T14:26:53.148Z,5.60
2018-11-07T14:29:21.153Z,5.23
2018-11-07T14:31:49.345Z,5.43
2018-11-07T14:34:17.381Z,5.93
2018-11-07T14:36:45.490Z,5.97
2018-11-07T14:39:13.662Z,5.70
2018-11-07T14:41:41.761Z,5.90
2018-11-07T14:44:09.873Z,6.40
2018-11-07T14:46:37.942Z,7.40
2018-11-07T14:49:06.012Z,5.87
2018-11-07T14:51:34.177Z,5.33
2018-11-07T14:54:02.776Z,5.40
2018-11-07T14:56:30.741Z,5.30
2018-11-07T14:58:58.836Z,6.23
2018-11-07T15:01:26.877Z,6.20
2018-11-07T15:03:54.832Z,5.70
2018-11-07T15:06:22.796Z,5.70
2018-11-07T15:08:50.764Z,5.53
2018-11-07T15:11:18.904Z,5.77
2018-11-07T15:13:46.837Z,5.73
2018-11-07T15:16:14.850Z,5.40
2018-11-07T15:18:42.816Z,6.60
2018-11-07T15:21:10.791Z,5.90
2018-11-07T15:23:38.758Z,5.83
2018-11-07T15:26:06.854Z,6.80
2018-11-07T15:28:34.816Z,7.20
2018-11-07T15:31:02.813Z,5.87
2018-11-07T15:33:30.799Z,6.07
2018-11-07T15:35:59.190Z,6.50
2018-11-07T15:38:27.205Z,6.17
2018-11-07T15:40:55.214Z,5.90
2018-11-07T15:43:23.288Z,5.50
2018-11-07T15:45:51.176Z,5.60
2018-11-07T15:48:19.148Z,7.00
2018-11-07T15:50:52.693Z,7.57
2018-11-07T15:53:27.321Z,7.10
2018-11-07T15:55:55.270Z,8.00
2018-11-07T15:58:23.258Z,6.33
2018-11-07T16:00:51.321Z,5.47
2018-11-07T16:03:24.724Z,7.07
2018-11-07T16:05:52.744Z,6.70
2018-11-07T16:08:20.760Z,5.67
2018-11-07T16:10:48.756Z,6.03
2018-11-07T16:13:17.358Z,6.20
2018-11-07T16:15:45.424Z,5.90
2018-11-07T16:18:13.428Z,7.00
2018-11-07T16:20:41.479Z,6.73
2018-11-07T16:23:09.415Z,6.40
2018-11-07T16:25:37.373Z,8.03
2018-11-07T16:28:05.369Z,7.63
2018-11-07T16:30:33.365Z,7.40
2018-11-07T16:33:01.633Z,7.40
2018-11-07T16:35:29.629Z,6.53
2018-11-07T16:37:57.871Z,6.47
2018-11-07T16:40:25.772Z,7.07
2018-11-07T16:42:53.754Z,7.30
2018-11-07T16:45:21.811Z,7.83
2018-11-07T16:47:49.797Z,6.80
2018-11-07T16:50:18.364Z,7.20
2018-11-07T16:52:46.468Z,7.20
2018-11-07T16:55:14.752Z,6.63
2018-11-07T16:57:43.020Z,7.77
2018-11-07T17:00:14.128Z,6.57
2018-11-07T17:02:42.713Z,7.03
2018-11-07T17:05:11.556Z,7.47
2018-11-07T17:07:39.868Z,7.30
2018-11-07T17:10:08.585Z,7.70
2018-11-07T17:12:36.746Z,8.10
2018-11-07T17:15:04.978Z,8.53
2018-11-07T17:17:32.960Z,8.03
2018-11-07T17:20:01.092Z,7.10
2018-11-07T17:22:29.106Z,7.77
2018-11-07T17:24:57.128Z,8.40
2018-11-07T17:27:25.087Z,8.83
2018-11-07T17:29:53.053Z,8.40
2018-11-07T17:32:21.105Z,8.00
2018-11-07T17:34:49.069Z,6.47
2018-11-07T17:37:17.114Z,7.80
2018-11-07T17:39:45.140Z,7.73
2018-11-07T17:42:13.183Z,7.50
2018-11-07T17:44:41.468Z,8.30
2018-11-07T17:47:09.521Z,8.17
2018-11-07T17:49:37.599Z,8.60
2018-11-07T17:52:05.687Z,9.33
2018-11-07T17:54:33.668Z,8.63
2018-11-07T17:57:01.655Z,9.50
2018-11-07T17:59:29.640Z,8.87
2018-11-07T18:01:57.616Z,9.43
2018-11-07T18:04:25.600Z,10.33
2018-11-07T18:06:53.652Z,8.73
2018-11-07T18:09:21.799Z,8.20
2018-11-07T18:11:49.777Z,7.40
2018-11-07T18:14:17.795Z,7.80
2018-11-07T18:16:45.801Z,8.27
2018-11-07T18:19:13.923Z,6.70
2018-11-07T18:21:41.941Z,7.97
2018-11-07T18:24:10.086Z,7.60
2018-11-07T18:26:38.085Z,7.20
2018-11-07T18:29:06.800Z,7.13
2018-11-07T18:31:34.912Z,7.63
2018-11-07T18:34:03.340Z,7.40
2018-11-07T18:36:31.633Z,7.33
2018-11-07T18:38:59.601Z,7.70
2018-11-07T18:41:27.823Z,6.70
2018-11-07T18:43:56.140Z,7.90
2018-11-07T18:46:24.441Z,8.50
2018-11-07T18:48:52.527Z,8.53
2018-11-07T18:51:20.972Z,9.80
2018-11-07T18:53:49.001Z,8.90
2018-11-07T18:56:17.183Z,9.47
2018-11-07T18:58:45.240Z,8.67
2018-11-07T19:01:13.184Z,8.33
2018-11-07T19:03:41.188Z,8.07
2018-11-07T19:06:09.225Z,8.23
2018-11-07T19:08:37.200Z,8.27
2018-11-07T19:11:05.571Z,7.10
2018-11-07T19:13:33.560Z,8.23
2018-11-07T19:16:01.516Z,8.20
2018-11-07T19:18:29.516Z,8.50
2018-11-07T19:20:57.491Z,7.97
2018-11-07T19:23:26.348Z,7.60
2018-11-07T19:25:54.304Z,7.83
2018-11-07T19:28:22.306Z,7.70
2018-11-07T19:30:50.320Z,7.20
2018-11-07T19:33:18.345Z,8.10
2018-11-07T19:35:46.320Z,8.40
2018-11-07T19:38:14.342Z,7.67
2018-11-07T19:40:42.332Z,9.07
2018-11-07T19:43:10.385Z,8.73
2018-11-07T19:45:38.486Z,8.23
2018-11-07T19:48:06.548Z,7.93
2018-11-07T19:50:34.504Z,8.60
2018-11-07T19:53:02.507Z,7.80
2018-11-07T19:55:31.563Z,7.60
2018-11-07T19:58:01.012Z,8.60
2018-11-07T20:00:29.235Z,7.60
2018-11-07T20:02:57.405Z,7.10
2018-11-07T20:05:25.349Z,7.37
2018-11-07T20:07:53.480Z,6.53
2018-11-07T20:10:22.313Z,9.00
2018-11-07T20:12:50.286Z,9.80
2018-11-07T20:15:19.323Z,8.20
2018-11-07T20:17:47.533Z,8.30
2018-11-07T20:20:15.760Z,8.80
2018-11-07T20:22:43.856Z,8.03
2018-11-07T20:25:12.818Z,8.33
2018-11-07T20:27:41.190Z,8.30
2018-11-07T20:30:10.798Z,8.97
2018-11-07T20:32:39.081Z,9.30
2018-11-07T20:35:08.503Z,11.17
2018-11-07T20:37:36.960Z,8.97
2018-11-07T20:40:07.131Z,7.83
2018-11-07T20:42:35.088Z,7.60
2018-11-07T20:45:03.137Z,7.67
2018-11-07T20:47:31.135Z,7.63
2018-11-07T20:49:59.156Z,8.17
2018-11-07T20:52:27.100Z,7.13
2018-11-07T20:54:55.160Z,7.50
2018-11-07T20:57:23.164Z,7.63
2018-11-07T20:59:51.240Z,8.30
2018-11-07T21:02:19.224Z,7.50
2018-11-07T21:04:47.210Z,7.87
2018-11-07T21:07:15.168Z,7.30
2018-11-07T21:09:43.227Z,7.97
2018-11-07T21:12:11.192Z,9.40
2018-11-07T21:14:39.200Z,9.90
2018-11-07T21:17:07.176Z,10.33
2018-11-07T21:19:35.173Z,9.50
2018-11-07T21:22:03.164Z,9.00
2018-11-07T21:24:31.178Z,8.70
2018-11-07T21:26:59.185Z,8.10
2018-11-07T21:29:27.116Z,7.23
2018-11-07T21:31:55.105Z,8.10
2018-11-07T21:34:23.177Z,7.50
2018-11-07T21:36:51.141Z,8.13
2018-11-07T21:39:19.117Z,8.10
2018-11-07T21:41:47.104Z,8.07
2018-11-07T21:44:15.283Z,8.63
2018-11-07T21:46:43.231Z,7.50
2018-11-07T21:49:11.468Z,7.93
2018-11-07T21:51:39.494Z,7.50
2018-11-07T21:54:07.456Z,8.43
2018-11-07T21:56:35.483Z,7.30
2018-11-07T21:59:03.502Z,7.53
2018-11-07T22:01:31.481Z,7.90
2018-11-07T22:03:59.491Z,8.37
2018-11-07T22:06:27.459Z,8.60
2018-11-07T22:08:55.435Z,10.10
2018-11-07T22:11:23.465Z,7.57
2018-11-07T22:13:51.520Z,8.17
2018-11-07T22:16:19.485Z,9.60
2018-11-07T22:18:47.494Z,8.40
2018-11-07T22:21:15.449Z,8.43
2018-11-07T22:23:43.404Z,7.83
2018-11-07T22:26:11.485Z,8.00
2018-11-07T22:28:39.439Z,6.90
2018-11-07T22:31:07.449Z,6.77
2018-11-07T22:33:35.411Z,6.43
2018-11-07T22:36:03.432Z,8.77
2018-11-07T22:38:31.413Z,7.10
2018-11-07T22:40:59.392Z,7.13
2018-11-07T22:43:27.365Z,6.43
2018-11-07T22:45:55.342Z,7.17
2018-11-07T22:48:23.312Z,6.00
2018-11-07T22:50:51.376Z,7.13
2018-11-07T22:53:19.441Z,6.50
2018-11-07T22:55:47.473Z,6.47
2018-11-07T22:58:15.477Z,5.93
2018-11-07T23:00:48.990Z,6.70
2018-11-07T23:03:17.301Z,5.87
2018-11-07T23:05:45.285Z,6.27
2018-11-07T23:08:13.254Z,7.00
2018-11-07T23:10:41.257Z,6.70
2018-11-07T23:13:09.332Z,6.40
2018-11-07T23:15:42.886Z,6.60
2018-11-07T23:18:10.890Z,10.23
2018-11-07T23:20:38.991Z,6.97
2018-11-07T23:23:06.967Z,7.00
2018-11-07T23:25:34.952Z,7.10
2018-11-07T23:28:02.952Z,6.57
2018-11-07T23:30:30.920Z,6.60
2018-11-07T23:32:59.000Z,6.83
2018-11-07T23:35:27.078Z,6.83
2018-11-07T23:37:55.060Z,8.00
2018-11-07T23:40:23.046Z,7.53
2018-11-07T23:42:51.085Z,7.83
2018-11-07T23:45:19.069Z,7.33
2018-11-07T23:47:47.056Z,7.87
2018-11-07T23:50:15.049Z,7.90
2018-11-07T23:52:49.328Z,8.23
2018-11-07T23:55:18.919Z,7.30
2018-11-07T23:57:47.186Z,7.30
